Etusivu
METAR-TAF:

METAR-TAF

Lentoasemat :

Kristianstad, Ruotsi

Leveyspiiri: 55-55N, Pituuspiiri: 014-05E, korkeus merenpinnasta: 23 m

Tämänhetkinen sää

Tämä raportti tehtiin 19 minuuttia sitten, kello 18.20 UTC
Tuuli 4 kn lännestä
Lämpötila 13°C
Kosteus 100%
Ilmanpaine 1021 hPa
Näkyvyys: 5000 m
utua

METAR: ESMK 221820Z AUTO 28004KT 5000 BR OVC002/// 13/13 Q1021

Aika: 20:39 (18:39 UTC)

Sääennuste

Tämä raportti tehtiin 1 tunti ja 39 minuuttia sitten, kello 17.00 UTC
Ennuste voimassa 22. päivästä klo 17 UTC - 22. päivään klo 18 UTC
Tuuli 6 kn luoteesta
Näkyvyys 10 km tai enemmän
Hajonneita pilviä 600 ft:n korkeudessa
Ajoittain
22. päivästä klo 17 UTC - 22. päivään klo 18 UTC
Näkyvyys: 3000 m
Hajonneita pilviä 1800 ft:n korkeudessa
heikkoa sadetta, tihkusadetta, utua

TAF: ESMK 221700Z 2217/2218 32006KT 9999 BKN006 TEMPO 2217/2218 3000 -RADZ BR BKN018

Säähavainnot ja -ennusteet yli 4000 lentoasemalta (METAR- ja TAF-raportit).

Käytössä olevat sääasemat on merkitty karttaan keltaisilla ja punaisilla pisteillä.

Aseta hiiri pisteen päälle nähdäksesi sääaseman nimen.

Klikkaa sitten nähdäksesi säähavainnot ja -ennusteet.

Kartan vaihtaminen: klikkaa mustalla rastilla varustettuja vihreitä pisteitä, niin voit zoomata sisään; viivalla varustettua vihreää pistettä, niin voit zoomata ulos tai vihreitä nuolia, niin pääset viereisille kartoille.


METAR-TAF: